sensor_id;sensor_type;location;lat;lon;timestamp;P1;durP1;ratioP1;P2;durP2;ratioP2
3211;SDS011;1618;47.056;15.472;2023-11-19T10:00:34;34.30;;;31.37;;
3211;SDS011;1618;47.056;15.472;2023-11-19T10:03:02;35.10;;;32.20;;
3211;SDS011;1618;47.056;15.472;2023-11-19T10:05:35;34.70;;;31.90;;
3211;SDS011;1618;47.056;15.472;2023-11-19T10:08:03;35.40;;;32.57;;
3211;SDS011;1618;47.056;15.472;2023-11-19T10:10:31;35.33;;;32.40;;
3211;SDS011;1618;47.056;15.472;2023-11-19T10:12:58;35.63;;;32.83;;
3211;SDS011;1618;47.056;15.472;2023-11-19T10:15:28;35.17;;;32.27;;
3211;SDS011;1618;47.056;15.472;2023-11-19T10:17:59;32.87;;;29.87;;
3211;SDS011;1618;47.056;15.472;2023-11-19T10:20:28;32.60;;;29.70;;
3211;SDS011;1618;47.056;15.472;2023-11-19T10:22:55;32.00;;;29.20;;
3211;SDS011;1618;47.056;15.472;2023-11-19T10:25:24;31.70;;;28.80;;
3211;SDS011;1618;47.056;15.472;2023-11-19T10:27:52;33.07;;;30.07;;
3211;SDS011;1618;47.056;15.472;2023-11-19T10:30:22;33.73;;;30.73;;
3211;SDS011;1618;47.056;15.472;2023-11-19T10:35:36;35.93;;;33.13;;
3211;SDS011;1618;47.056;15.472;2023-11-19T10:38:12;34.20;;;31.30;;
3211;SDS011;1618;47.056;15.472;2023-11-19T10:40:41;34.40;;;31.50;;
3211;SDS011;1618;47.056;15.472;2023-11-19T10:43:12;35.30;;;32.30;;
3211;SDS011;1618;47.056;15.472;2023-11-19T10:45:39;32.50;;;29.80;;
3211;SDS011;1618;47.056;15.472;2023-11-19T10:48:08;34.03;;;31.23;;
3211;SDS011;1618;47.056;15.472;2023-11-19T10:50:38;33.87;;;30.87;;
3211;SDS011;1618;47.056;15.472;2023-11-19T10:53:08;33.47;;;30.67;;
3211;SDS011;1618;47.056;15.472;2023-11-19T10:55:36;34.20;;;31.30;;
3211;SDS011;1618;47.056;15.472;2023-11-19T10:58:04;34.07;;;30.97;;
3211;SDS011;1618;47.056;15.472;2023-11-19T11:00:34;33.60;;;30.50;;
3211;SDS011;1618;47.056;15.472;2023-11-19T11:03:08;34.57;;;31.47;;
3211;SDS011;1618;47.056;15.472;2023-11-19T11:05:40;34.40;;;31.40;;
3211;SDS011;1618;47.056;15.472;2023-11-19T11:08:08;34.90;;;31.90;;
3211;SDS011;1618;47.056;15.472;2023-11-19T11:10:49;33.90;;;30.90;;
3211;SDS011;1618;47.056;15.472;2023-11-19T11:13:18;34.63;;;31.53;;
3211;SDS011;1618;47.056;15.472;2023-11-19T11:15:45;33.80;;;30.70;;
3211;SDS011;1618;47.056;15.472;2023-11-19T11:18:13;34.73;;;31.53;;
3211;SDS011;1618;47.056;15.472;2023-11-19T11:20:41;34.40;;;31.30;;
3211;SDS011;1618;47.056;15.472;2023-11-19T11:23:15;34.83;;;31.73;;
3211;SDS011;1618;47.056;15.472;2023-11-19T11:25:50;33.33;;;30.33;;
3211;SDS011;1618;47.056;15.472;2023-11-19T11:28:23;35.80;;;32.60;;
3211;SDS011;1618;47.056;15.472;2023-11-19T11:31:09;32.70;;;29.70;;
3211;SDS011;1618;47.056;15.472;2023-11-19T11:33:45;35.77;;;32.57;;
3211;SDS011;1618;47.056;15.472;2023-11-19T11:36:22;34.40;;;31.20;;
3211;SDS011;1618;47.056;15.472;2023-11-19T11:38:50;34.87;;;31.97;;
3211;SDS011;1618;47.056;15.472;2023-11-19T11:41:18;33.10;;;30.10;;
3211;SDS011;1618;47.056;15.472;2023-11-19T11:43:51;34.60;;;31.50;;
3211;SDS011;1618;47.056;15.472;2023-11-19T11:49:10;34.30;;;31.30;;
3211;SDS011;1618;47.056;15.472;2023-11-19T11:54:27;34.10;;;31.00;;
3211;SDS011;1618;47.056;15.472;2023-11-19T11:57:06;33.93;;;30.80;;
3211;SDS011;1618;47.056;15.472;2023-11-19T12:02:21;34.60;;;31.40;;
3211;SDS011;1618;47.056;15.472;2023-11-19T12:04:50;34.57;;;31.37;;
3211;SDS011;1618;47.056;15.472;2023-11-19T12:07:18;35.03;;;31.83;;
3211;SDS011;1618;47.056;15.472;2023-11-19T12:09:52;35.03;;;31.93;;
3211;SDS011;1618;47.056;15.472;2023-11-19T12:12:26;37.50;;;34.50;;
3211;SDS011;1618;47.056;15.472;2023-11-19T12:15:02;34.40;;;31.30;;
3211;SDS011;1618;47.056;15.472;2023-11-19T12:17:41;35.20;;;32.00;;
3211;SDS011;1618;47.056;15.472;2023-11-19T12:20:09;34.87;;;31.67;;
3211;SDS011;1618;47.056;15.472;2023-11-19T12:22:37;34.37;;;31.17;;
3211;SDS011;1618;47.056;15.472;2023-11-19T12:25:07;33.90;;;30.80;;
3211;SDS011;1618;47.056;15.472;2023-11-19T12:27:36;34.00;;;30.90;;
3211;SDS011;1618;47.056;15.472;2023-11-19T12:30:03;33.60;;;30.50;;
3211;SDS011;1618;47.056;15.472;2023-11-19T12:32:37;34.53;;;31.43;;
3211;SDS011;1618;47.056;15.472;2023-11-19T12:35:06;34.73;;;31.63;;
3211;SDS011;1618;47.056;15.472;2023-11-19T12:37:40;33.70;;;30.60;;
3211;SDS011;1618;47.056;15.472;2023-11-19T12:40:13;34.37;;;31.27;;
3211;SDS011;1618;47.056;15.472;2023-11-19T12:42:42;34.30;;;31.10;;
3211;SDS011;1618;47.056;15.472;2023-11-19T12:45:11;34.90;;;31.70;;
3211;SDS011;1618;47.056;15.472;2023-11-19T12:47:39;34.00;;;30.80;;
3211;SDS011;1618;47.056;15.472;2023-11-19T12:50:07;33.70;;;30.60;;
3211;SDS011;1618;47.056;15.472;2023-11-19T12:52:36;33.80;;;30.70;;
3211;SDS011;1618;47.056;15.472;2023-11-19T12:55:05;34.43;;;31.23;;
3211;SDS011;1618;47.056;15.472;2023-11-19T12:57:56;34.63;;;31.42;;
3211;SDS011;1618;47.056;15.472;2023-11-19T13:00:24;34.20;;;31.10;;
3211;SDS011;1618;47.056;15.472;2023-11-19T13:02:53;33.87;;;30.77;;
3211;SDS011;1618;47.056;15.472;2023-11-19T13:05:24;34.37;;;31.17;;
3211;SDS011;1618;47.056;15.472;2023-11-19T13:08:02;33.60;;;30.40;;
3211;SDS011;1618;47.056;15.472;2023-11-19T13:10:30;33.77;;;30.57;;
3211;SDS011;1618;47.056;15.472;2023-11-19T13:13:10;33.00;;;29.90;;
3211;SDS011;1618;47.056;15.472;2023-11-19T13:15:39;33.13;;;30.00;;
3211;SDS011;1618;47.056;15.472;2023-11-19T13:18:07;34.30;;;31.00;;
3211;SDS011;1618;47.056;15.472;2023-11-19T13:20:35;34.90;;;31.70;;
3211;SDS011;1618;47.056;15.472;2023-11-19T13:23:05;34.67;;;31.57;;
3211;SDS011;1618;47.056;15.472;2023-11-19T13:25:34;34.40;;;31.30;;
3211;SDS011;1618;47.056;15.472;2023-11-19T13:28:02;35.00;;;31.80;;
3211;SDS011;1618;47.056;15.472;2023-11-19T13:30:33;33.90;;;30.80;;
3211;SDS011;1618;47.056;15.472;2023-11-19T13:33:02;34.30;;;31.10;;
3211;SDS011;1618;47.056;15.472;2023-11-19T13:35:30;36.00;;;33.10;;
3211;SDS011;1618;47.056;15.472;2023-11-19T13:37:57;34.47;;;31.37;;
3211;SDS011;1618;47.056;15.472;2023-11-19T13:40:24;34.80;;;31.60;;
3211;SDS011;1618;47.056;15.472;2023-11-19T13:42:53;34.10;;;31.00;;
3211;SDS011;1618;47.056;15.472;2023-11-19T13:45:21;34.30;;;31.10;;
3211;SDS011;1618;47.056;15.472;2023-11-19T13:47:50;34.20;;;31.10;;
3211;SDS011;1618;47.056;15.472;2023-11-19T13:50:18;34.33;;;31.23;;
3211;SDS011;1618;47.056;15.472;2023-11-19T13:52:46;33.90;;;30.80;;
3211;SDS011;1618;47.056;15.472;2023-11-19T13:55:14;33.97;;;30.87;;
3211;SDS011;1618;47.056;15.472;2023-11-19T13:57:44;34.20;;;31.10;;
3211;SDS011;1618;47.056;15.472;2023-11-19T14:00:12;34.70;;;31.60;;
3211;SDS011;1618;47.056;15.472;2023-11-19T14:02:41;34.30;;;31.20;;
3211;SDS011;1618;47.056;15.472;2023-11-19T14:05:13;34.63;;;31.53;;
3211;SDS011;1618;47.056;15.472;2023-11-19T14:07:45;34.80;;;31.90;;
3211;SDS011;1618;47.056;15.472;2023-11-19T14:10:13;34.73;;;31.73;;
3211;SDS011;1618;47.056;15.472;2023-11-19T14:12:41;34.30;;;31.30;;
3211;SDS011;1618;47.056;15.472;2023-11-19T14:15:09;33.90;;;30.90;;
3211;SDS011;1618;47.056;15.472;2023-11-19T14:17:37;33.20;;;30.20;;
3211;SDS011;1618;47.056;15.472;2023-11-19T14:20:05;32.80;;;29.80;;
3211;SDS011;1618;47.056;15.472;2023-11-19T14:22:41;34.70;;;31.70;;
3211;SDS011;1618;47.056;15.472;2023-11-19T14:25:10;32.90;;;30.00;;
3211;SDS011;1618;47.056;15.472;2023-11-19T14:27:41;33.47;;;30.57;;
3211;SDS011;1618;47.056;15.472;2023-11-19T14:30:09;33.27;;;30.27;;
3211;SDS011;1618;47.056;15.472;2023-11-19T14:32:39;33.50;;;30.60;;
3211;SDS011;1618;47.056;15.472;2023-11-19T14:35:08;33.87;;;31.07;;
3211;SDS011;1618;47.056;15.472;2023-11-19T14:37:36;30.50;;;27.90;;
3211;SDS011;1618;47.056;15.472;2023-11-19T14:40:05;33.67;;;30.97;;
3211;SDS011;1618;47.056;15.472;2023-11-19T14:42:36;33.70;;;30.90;;
3211;SDS011;1618;47.056;15.472;2023-11-19T14:45:04;32.50;;;29.70;;
3211;SDS011;1618;47.056;15.472;2023-11-19T14:47:33;32.50;;;29.63;;
3211;SDS011;1618;47.056;15.472;2023-11-19T14:50:01;32.37;;;29.47;;
3211;SDS011;1618;47.056;15.472;2023-11-19T14:52:34;32.47;;;29.57;;
3211;SDS011;1618;47.056;15.472;2023-11-19T14:55:07;32.30;;;29.50;;
3211;SDS011;1618;47.056;15.472;2023-11-19T14:57:47;32.90;;;30.10;;
3211;SDS011;1618;47.056;15.472;2023-11-19T15:00:16;32.70;;;30.10;;
3211;SDS011;1618;47.056;15.472;2023-11-19T15:02:43;33.60;;;30.90;;
3211;SDS011;1618;47.056;15.472;2023-11-19T15:05:11;34.20;;;31.40;;
3211;SDS011;1618;47.056;15.472;2023-11-19T15:07:38;34.30;;;31.60;;
3211;SDS011;1618;47.056;15.472;2023-11-19T15:10:08;34.00;;;31.60;;
3211;SDS011;1618;47.056;15.472;2023-11-19T15:12:36;34.40;;;32.00;;
3211;SDS011;1618;47.056;15.472;2023-11-19T15:15:06;31.40;;;28.80;;
3211;SDS011;1618;47.056;15.472;2023-11-19T15:17:34;30.30;;;27.70;;
3211;SDS011;1618;47.056;15.472;2023-11-19T15:20:03;30.90;;;28.30;;
3211;SDS011;1618;47.056;15.472;2023-11-19T15:22:31;30.47;;;27.97;;
3211;SDS011;1618;47.056;15.472;2023-11-19T15:24:59;30.23;;;27.73;;
3211;SDS011;1618;47.056;15.472;2023-11-19T15:27:30;29.90;;;27.40;;
3211;SDS011;1618;47.056;15.472;2023-11-19T15:29:58;30.10;;;27.60;;
3211;SDS011;1618;47.056;15.472;2023-11-19T15:32:26;29.77;;;27.17;;
3211;SDS011;1618;47.056;15.472;2023-11-19T15:34:57;29.93;;;27.43;;
3211;SDS011;1618;47.056;15.472;2023-11-19T15:37:25;32.30;;;29.90;;
3211;SDS011;1618;47.056;15.472;2023-11-19T15:39:52;32.30;;;29.60;;
3211;SDS011;1618;47.056;15.472;2023-11-19T15:42:20;31.90;;;29.40;;
3211;SDS011;1618;47.056;15.472;2023-11-19T15:44:49;29.90;;;27.60;;
3211;SDS011;1618;47.056;15.472;2023-11-19T15:47:17;29.67;;;27.47;;
3211;SDS011;1618;47.056;15.472;2023-11-19T15:49:45;29.40;;;27.20;;
3211;SDS011;1618;47.056;15.472;2023-11-19T15:52:15;29.60;;;27.40;;
3211;SDS011;1618;47.056;15.472;2023-11-19T15:54:43;30.00;;;27.80;;
3211;SDS011;1618;47.056;15.472;2023-11-19T15:57:12;29.23;;;27.03;;
3211;SDS011;1618;47.056;15.472;2023-11-19T15:59:40;29.70;;;27.50;;
3211;SDS011;1618;47.056;15.472;2023-11-19T16:05:14;28.43;;;26.23;;
3211;SDS011;1618;47.056;15.472;2023-11-19T16:07:43;28.97;;;26.77;;
3211;SDS011;1618;47.056;15.472;2023-11-19T16:10:10;29.40;;;27.20;;
3211;SDS011;1618;47.056;15.472;2023-11-19T16:12:41;28.80;;;26.60;;
3211;SDS011;1618;47.056;15.472;2023-11-19T16:15:09;29.27;;;27.07;;
3211;SDS011;1618;47.056;15.472;2023-11-19T16:17:39;28.20;;;26.10;;
3211;SDS011;1618;47.056;15.472;2023-11-19T16:20:09;27.23;;;25.23;;
3211;SDS011;1618;47.056;15.472;2023-11-19T16:22:39;28.30;;;26.20;;
3211;SDS011;1618;47.056;15.472;2023-11-19T16:25:08;28.13;;;26.03;;
3211;SDS011;1618;47.056;15.472;2023-11-19T16:27:37;27.23;;;25.23;;
3211;SDS011;1618;47.056;15.472;2023-11-19T16:30:06;27.83;;;25.83;;
3211;SDS011;1618;47.056;15.472;2023-11-19T16:32:35;26.47;;;24.57;;
3211;SDS011;1618;47.056;15.472;2023-11-19T16:35:10;27.10;;;25.10;;
3211;SDS011;1618;47.056;15.472;2023-11-19T16:37:38;27.53;;;25.53;;
3211;SDS011;1618;47.056;15.472;2023-11-19T16:40:08;27.40;;;25.50;;
3211;SDS011;1618;47.056;15.472;2023-11-19T16:42:36;26.60;;;24.70;;
3211;SDS011;1618;47.056;15.472;2023-11-19T16:45:05;26.90;;;25.00;;
3211;SDS011;1618;47.056;15.472;2023-11-19T16:47:34;27.30;;;25.30;;
3211;SDS011;1618;47.056;15.472;2023-11-19T16:50:02;27.27;;;25.30;;
3211;SDS011;1618;47.056;15.472;2023-11-19T16:52:32;26.87;;;24.97;;
3211;SDS011;1618;47.056;15.472;2023-11-19T16:55:00;25.73;;;23.93;;
3211;SDS011;1618;47.056;15.472;2023-11-19T16:57:32;26.20;;;24.40;;
3211;SDS011;1618;47.056;15.472;2023-11-19T17:00:02;26.40;;;24.60;;
3211;SDS011;1618;47.056;15.472;2023-11-19T17:02:32;26.40;;;24.60;;
3211;SDS011;1618;47.056;15.472;2023-11-19T17:04:59;26.83;;;25.03;;
3211;SDS011;1618;47.056;15.472;2023-11-19T17:07:29;25.90;;;24.13;;
3211;SDS011;1618;47.056;15.472;2023-11-19T17:09:57;25.70;;;24.00;;
3211;SDS011;1618;47.056;15.472;2023-11-19T17:12:24;27.37;;;25.57;;
3211;SDS011;1618;47.056;15.472;2023-11-19T17:14:53;27.40;;;25.60;;
3211;SDS011;1618;47.056;15.472;2023-11-19T17:17:30;26.90;;;25.20;;
3211;SDS011;1618;47.056;15.472;2023-11-19T17:20:01;26.50;;;24.80;;
3211;SDS011;1618;47.056;15.472;2023-11-19T17:22:33;27.23;;;25.50;;
3211;SDS011;1618;47.056;15.472;2023-11-19T17:25:04;28.77;;;26.97;;
3211;SDS011;1618;47.056;15.472;2023-11-19T17:27:35;26.50;;;24.80;;
3211;SDS011;1618;47.056;15.472;2023-11-19T17:30:06;26.73;;;25.03;;
3211;SDS011;1618;47.056;15.472;2023-11-19T17:32:39;27.30;;;25.60;;
3211;SDS011;1618;47.056;15.472;2023-11-19T17:35:06;27.07;;;25.37;;
3211;SDS011;1618;47.056;15.472;2023-11-19T17:37:34;27.50;;;25.80;;
3211;SDS011;1618;47.056;15.472;2023-11-19T17:40:02;26.87;;;25.27;;
3211;SDS011;1618;47.056;15.472;2023-11-19T17:42:31;27.23;;;25.53;;
3211;SDS011;1618;47.056;15.472;2023-11-19T17:44:58;27.00;;;25.30;;
3211;SDS011;1618;47.056;15.472;2023-11-19T17:47:28;27.80;;;26.10;;
3211;SDS011;1618;47.056;15.472;2023-11-19T17:49:56;26.57;;;25.00;;
3211;SDS011;1618;47.056;15.472;2023-11-19T17:52:24;35.73;;;33.83;;
3211;SDS011;1618;47.056;15.472;2023-11-19T17:54:52;26.07;;;24.57;;
3211;SDS011;1618;47.056;15.472;2023-11-19T17:57:19;25.50;;;23.90;;
3211;SDS011;1618;47.056;15.472;2023-11-19T17:59:47;25.70;;;24.20;;
3211;SDS011;1618;47.056;15.472;2023-11-19T18:02:16;25.70;;;24.10;;
3211;SDS011;1618;47.056;15.472;2023-11-19T18:04:47;25.17;;;23.67;;
3211;SDS011;1618;47.056;15.472;2023-11-19T18:07:18;25.40;;;23.90;;
3211;SDS011;1618;47.056;15.472;2023-11-19T18:09:46;25.03;;;23.53;;
3211;SDS011;1618;47.056;15.472;2023-11-19T18:12:14;25.10;;;23.60;;
3211;SDS011;1618;47.056;15.472;2023-11-19T18:14:42;26.00;;;24.50;;
3211;SDS011;1618;47.056;15.472;2023-11-19T18:17:10;25.20;;;23.70;;
3211;SDS011;1618;47.056;15.472;2023-11-19T18:19:42;24.60;;;23.20;;
3211;SDS011;1618;47.056;15.472;2023-11-19T18:22:13;25.20;;;23.80;;
3211;SDS011;1618;47.056;15.472;2023-11-19T18:24:43;24.50;;;23.10;;
3211;SDS011;1618;47.056;15.472;2023-11-19T18:27:12;24.50;;;23.10;;
3211;SDS011;1618;47.056;15.472;2023-11-19T18:29:40;24.53;;;23.13;;
3211;SDS011;1618;47.056;15.472;2023-11-19T18:32:09;25.00;;;23.60;;
3211;SDS011;1618;47.056;15.472;2023-11-19T18:34:38;23.97;;;22.67;;
3211;SDS011;1618;47.056;15.472;2023-11-19T18:37:05;24.80;;;23.40;;
3211;SDS011;1618;47.056;15.472;2023-11-19T18:39:34;25.70;;;24.20;;
3211;SDS011;1618;47.056;15.472;2023-11-19T18:42:02;25.10;;;23.70;;
3211;SDS011;1618;47.056;15.472;2023-11-19T18:44:29;25.13;;;23.73;;
3211;SDS011;1618;47.056;15.472;2023-11-19T18:46:58;24.67;;;23.27;;
3211;SDS011;1618;47.056;15.472;2023-11-19T18:49:27;24.80;;;23.40;;
3211;SDS011;1618;47.056;15.472;2023-11-19T18:51:56;25.27;;;23.77;;
3211;SDS011;1618;47.056;15.472;2023-11-19T18:54:24;25.30;;;23.90;;
3211;SDS011;1618;47.056;15.472;2023-11-19T18:56:54;25.60;;;24.10;;
3211;SDS011;1618;47.056;15.472;2023-11-19T18:59:23;25.30;;;23.80;;
3211;SDS011;1618;47.056;15.472;2023-11-19T19:01:52;24.17;;;22.77;;
3211;SDS011;1618;47.056;15.472;2023-11-19T19:04:20;24.20;;;22.80;;
3211;SDS011;1618;47.056;15.472;2023-11-19T19:06:52;23.30;;;22.00;;
3211;SDS011;1618;47.056;15.472;2023-11-19T19:09:21;24.00;;;22.60;;
3211;SDS011;1618;47.056;15.472;2023-11-19T19:11:50;24.57;;;23.17;;
3211;SDS011;1618;47.056;15.472;2023-11-19T19:14:20;24.90;;;23.50;;
3211;SDS011;1618;47.056;15.472;2023-11-19T19:16:47;25.30;;;23.80;;
3211;SDS011;1618;47.056;15.472;2023-11-19T19:19:15;25.50;;;24.00;;
3211;SDS011;1618;47.056;15.472;2023-11-19T19:21:42;24.53;;;23.13;;
3211;SDS011;1618;47.056;15.472;2023-11-19T19:24:10;25.17;;;23.77;;
3211;SDS011;1618;47.056;15.472;2023-11-19T19:26:39;24.97;;;23.57;;
3211;SDS011;1618;47.056;15.472;2023-11-19T19:29:07;25.30;;;23.83;;
3211;SDS011;1618;47.056;15.472;2023-11-19T19:31:37;26.10;;;24.60;;
3211;SDS011;1618;47.056;15.472;2023-11-19T19:34:06;24.87;;;23.47;;
3211;SDS011;1618;47.056;15.472;2023-11-19T19:36:34;24.80;;;23.40;;
3211;SDS011;1618;47.056;15.472;2023-11-19T19:39:02;25.90;;;24.50;;
3211;SDS011;1618;47.056;15.472;2023-11-19T19:41:34;25.27;;;23.87;;
3211;SDS011;1618;47.056;15.472;2023-11-19T19:44:03;26.23;;;24.73;;
3211;SDS011;1618;47.056;15.472;2023-11-19T19:46:30;25.37;;;23.97;;
3211;SDS011;1618;47.056;15.472;2023-11-19T19:48:59;25.43;;;24.03;;
3211;SDS011;1618;47.056;15.472;2023-11-19T19:51:29;25.63;;;24.23;;
3211;SDS011;1618;47.056;15.472;2023-11-19T19:53:58;25.63;;;24.23;;
3211;SDS011;1618;47.056;15.472;2023-11-19T19:56:27;25.47;;;24.07;;
3211;SDS011;1618;47.056;15.472;2023-11-19T19:58:54;25.50;;;24.20;;
3211;SDS011;1618;47.056;15.472;2023-11-19T20:01:23;25.00;;;23.70;;
3211;SDS011;1618;47.056;15.472;2023-11-19T20:03:52;27.00;;;25.60;;
3211;SDS011;1618;47.056;15.472;2023-11-19T20:06:22;27.40;;;25.90;;
3211;SDS011;1618;47.056;15.472;2023-11-19T20:08:50;25.50;;;24.10;;
3211;SDS011;1618;47.056;15.472;2023-11-19T20:11:18;25.60;;;24.30;;
3211;SDS011;1618;47.056;15.472;2023-11-19T20:13:46;26.37;;;24.97;;
3211;SDS011;1618;47.056;15.472;2023-11-19T20:16:16;26.10;;;24.70;;
3211;SDS011;1618;47.056;15.472;2023-11-19T20:18:44;26.47;;;25.07;;
3211;SDS011;1618;47.056;15.472;2023-11-19T20:21:13;26.77;;;25.37;;
3211;SDS011;1618;47.056;15.472;2023-11-19T20:23:43;25.20;;;23.80;;
3211;SDS011;1618;47.056;15.472;2023-11-19T20:26:10;28.00;;;26.50;;
3211;SDS011;1618;47.056;15.472;2023-11-19T20:28:43;26.90;;;25.50;;
3211;SDS011;1618;47.056;15.472;2023-11-19T20:31:15;26.50;;;25.10;;
3211;SDS011;1618;47.056;15.472;2023-11-19T20:33:44;26.77;;;25.37;;
3211;SDS011;1618;47.056;15.472;2023-11-19T20:36:13;26.00;;;24.60;;
3211;SDS011;1618;47.056;15.472;2023-11-19T20:38:44;26.93;;;25.47;;
3211;SDS011;1618;47.056;15.472;2023-11-19T20:41:13;27.00;;;25.60;;
3211;SDS011;1618;47.056;15.472;2023-11-19T20:43:41;26.57;;;25.17;;
3211;SDS011;1618;47.056;15.472;2023-11-19T20:46:11;25.80;;;24.50;;
3211;SDS011;1618;47.056;15.472;2023-11-19T20:48:38;26.00;;;24.60;;
3211;SDS011;1618;47.056;15.472;2023-11-19T20:51:09;24.87;;;23.57;;
3211;SDS011;1618;47.056;15.472;2023-11-19T20:53:39;26.50;;;25.10;;
3211;SDS011;1618;47.056;15.472;2023-11-19T20:56:10;26.87;;;25.47;;
3211;SDS011;1618;47.056;15.472;2023-11-19T20:58:38;25.50;;;24.20;;
3211;SDS011;1618;47.056;15.472;2023-11-19T21:01:05;25.70;;;24.30;;
3211;SDS011;1618;47.056;15.472;2023-11-19T21:03:33;26.50;;;25.10;;
3211;SDS011;1618;47.056;15.472;2023-11-19T21:06:03;27.30;;;25.90;;
3211;SDS011;1618;47.056;15.472;2023-11-19T21:08:31;26.60;;;25.20;;
3211;SDS011;1618;47.056;15.472;2023-11-19T21:11:01;27.07;;;25.67;;
3211;SDS011;1618;47.056;15.472;2023-11-19T21:13:30;27.10;;;25.70;;
3211;SDS011;1618;47.056;15.472;2023-11-19T21:16:00;26.90;;;25.50;;
3211;SDS011;1618;47.056;15.472;2023-11-19T21:18:27;26.63;;;25.33;;
3211;SDS011;1618;47.056;15.472;2023-11-19T21:20:55;26.47;;;25.07;;
3211;SDS011;1618;47.056;15.472;2023-11-19T21:23:22;25.80;;;24.50;;
3211;SDS011;1618;47.056;15.472;2023-11-19T21:25:50;26.03;;;24.73;;
3211;SDS011;1618;47.056;15.472;2023-11-19T21:28:18;25.30;;;24.00;;
3211;SDS011;1618;47.056;15.472;2023-11-19T21:30:47;25.57;;;24.27;;
3211;SDS011;1618;47.056;15.472;2023-11-19T21:33:15;25.77;;;24.47;;
3211;SDS011;1618;47.056;15.472;2023-11-19T21:35:43;25.27;;;23.97;;
3211;SDS011;1618;47.056;15.472;2023-11-19T21:38:11;26.57;;;25.17;;
3211;SDS011;1618;47.056;15.472;2023-11-19T21:40:40;26.03;;;24.73;;
3211;SDS011;1618;47.056;15.472;2023-11-19T21:43:07;27.40;;;26.10;;
3211;SDS011;1618;47.056;15.472;2023-11-19T21:45:36;27.70;;;26.40;;
3211;SDS011;1618;47.056;15.472;2023-11-19T21:48:06;27.67;;;26.37;;
3211;SDS011;1618;47.056;15.472;2023-11-19T21:50:34;27.10;;;25.80;;
3211;SDS011;1618;47.056;15.472;2023-11-19T21:53:03;25.30;;;24.00;;
3211;SDS011;1618;47.056;15.472;2023-11-19T21:55:31;26.00;;;24.70;;
3211;SDS011;1618;47.056;15.472;2023-11-19T21:57:59;25.10;;;23.80;;
3211;SDS011;1618;47.056;15.472;2023-11-19T22:00:29;25.63;;;24.33;;
3211;SDS011;1618;47.056;15.472;2023-11-19T22:02:57;25.00;;;23.80;;
3211;SDS011;1618;47.056;15.472;2023-11-19T22:05:27;25.00;;;23.80;;
3211;SDS011;1618;47.056;15.472;2023-11-19T22:07:55;25.40;;;24.20;;
3211;SDS011;1618;47.056;15.472;2023-11-19T22:10:22;25.07;;;23.87;;
3211;SDS011;1618;47.056;15.472;2023-11-19T22:12:51;24.70;;;23.50;;
3211;SDS011;1618;47.056;15.472;2023-11-19T22:15:19;25.00;;;23.80;;
3211;SDS011;1618;47.056;15.472;2023-11-19T22:17:47;23.93;;;22.73;;
3211;SDS011;1618;47.056;15.472;2023-11-19T22:20:15;23.00;;;21.90;;
3211;SDS011;1618;47.056;15.472;2023-11-19T22:22:45;23.30;;;22.20;;
3211;SDS011;1618;47.056;15.472;2023-11-19T22:25:15;23.00;;;21.90;;
3211;SDS011;1618;47.056;15.472;2023-11-19T22:27:44;23.40;;;22.30;;
3211;SDS011;1618;47.056;15.472;2023-11-19T22:30:11;22.93;;;21.83;;
3211;SDS011;1618;47.056;15.472;2023-11-19T22:32:40;24.70;;;23.50;;
3211;SDS011;1618;47.056;15.472;2023-11-19T22:35:08;24.60;;;23.40;;
3211;SDS011;1618;47.056;15.472;2023-11-19T22:37:36;24.90;;;23.70;;
3211;SDS011;1618;47.056;15.472;2023-11-19T22:40:07;24.87;;;23.67;;
3211;SDS011;1618;47.056;15.472;2023-11-19T22:42:39;24.80;;;23.60;;
3211;SDS011;1618;47.056;15.472;2023-11-19T22:45:07;24.57;;;23.37;;
3211;SDS011;1618;47.056;15.472;2023-11-19T22:47:35;23.97;;;22.77;;
3211;SDS011;1618;47.056;15.472;2023-11-19T22:50:03;24.70;;;23.50;;
3211;SDS011;1618;47.056;15.472;2023-11-19T22:52:31;23.67;;;22.57;;
3211;SDS011;1618;47.056;15.472;2023-11-19T22:55:00;24.30;;;23.10;;
3211;SDS011;1618;47.056;15.472;2023-11-19T22:57:28;24.03;;;22.83;;
3211;SDS011;1618;47.056;15.472;2023-11-19T22:59:56;23.63;;;22.43;;
3211;SDS011;1618;47.056;15.472;2023-11-19T23:02:23;23.37;;;22.17;;
3211;SDS011;1618;47.056;15.472;2023-11-19T23:04:50;23.50;;;22.33;;
3211;SDS011;1618;47.056;15.472;2023-11-19T23:07:18;24.60;;;23.40;;
3211;SDS011;1618;47.056;15.472;2023-11-19T23:09:45;24.60;;;23.40;;
3211;SDS011;1618;47.056;15.472;2023-11-19T23:12:14;24.83;;;23.63;;
3211;SDS011;1618;47.056;15.472;2023-11-19T23:14:43;25.20;;;24.00;;
3211;SDS011;1618;47.056;15.472;2023-11-19T23:17:10;25.20;;;24.00;;
3211;SDS011;1618;47.056;15.472;2023-11-19T23:19:41;24.63;;;23.43;;
3211;SDS011;1618;47.056;15.472;2023-11-19T23:22:10;25.40;;;24.20;;
3211;SDS011;1618;47.056;15.472;2023-11-19T23:24:38;24.80;;;23.60;;
3211;SDS011;1618;47.056;15.472;2023-11-19T23:27:05;24.63;;;23.43;;
3211;SDS011;1618;47.056;15.472;2023-11-19T23:29:36;24.70;;;23.50;;
3211;SDS011;1618;47.056;15.472;2023-11-19T23:32:05;23.80;;;22.70;;
3211;SDS011;1618;47.056;15.472;2023-11-19T23:34:34;22.90;;;21.80;;
3211;SDS011;1618;47.056;15.472;2023-11-19T23:37:02;22.80;;;21.70;;
3211;SDS011;1618;47.056;15.472;2023-11-19T23:39:30;23.63;;;22.53;;
3211;SDS011;1618;47.056;15.472;2023-11-19T23:41:58;24.77;;;23.67;;
3211;SDS011;1618;47.056;15.472;2023-11-19T23:44:27;23.00;;;22.00;;
3211;SDS011;1618;47.056;15.472;2023-11-19T23:46:57;23.43;;;22.33;;
3211;SDS011;1618;47.056;15.472;2023-11-19T23:49:25;22.60;;;21.60;;
3211;SDS011;1618;47.056;15.472;2023-11-19T23:51:56;22.00;;;21.00;;
3211;SDS011;1618;47.056;15.472;2023-11-19T23:54:25;22.30;;;21.30;;
3211;SDS011;1618;47.056;15.472;2023-11-19T23:56:53;22.80;;;21.70;;
3211;SDS011;1618;47.056;15.472;2023-11-19T23:59:20;22.90;;;21.80;;
